sensor_id;sensor_type;location;lat;lon;timestamp;P1;durP1;ratioP1;P2;durP2;ratioP2
41885;SDS011;27567;43.084;25.616;2023-07-24T00:00:06;13.50;;;7.97;;
41885;SDS011;27567;43.084;25.616;2023-07-24T00:02:50;10.23;;;8.02;;
41885;SDS011;27567;43.084;25.616;2023-07-24T00:05:34;11.80;;;8.50;;
41885;SDS011;27567;43.084;25.616;2023-07-24T00:08:18;12.40;;;7.68;;
41885;SDS011;27567;43.084;25.616;2023-07-24T00:11:02;13.15;;;8.27;;
41885;SDS011;27567;43.084;25.616;2023-07-24T00:13:48;13.57;;;7.57;;
41885;SDS011;27567;43.084;25.616;2023-07-24T00:16:32;10.82;;;8.23;;
41885;SDS011;27567;43.084;25.616;2023-07-24T00:19:16;28.50;;;8.75;;
41885;SDS011;27567;43.084;25.616;2023-07-24T00:22:00;14.18;;;9.20;;
41885;SDS011;27567;43.084;25.616;2023-07-24T00:24:44;10.18;;;8.57;;
41885;SDS011;27567;43.084;25.616;2023-07-24T00:27:27;18.25;;;9.05;;
41885;SDS011;27567;43.084;25.616;2023-07-24T00:30:11;11.43;;;8.15;;
41885;SDS011;27567;43.084;25.616;2023-07-24T00:32:55;12.65;;;8.70;;
41885;SDS011;27567;43.084;25.616;2023-07-24T00:35:39;11.55;;;8.68;;
41885;SDS011;27567;43.084;25.616;2023-07-24T00:38:23;13.15;;;8.63;;
41885;SDS011;27567;43.084;25.616;2023-07-24T00:41:07;13.77;;;8.50;;
41885;SDS011;27567;43.084;25.616;2023-07-24T00:43:51;12.35;;;7.82;;
41885;SDS011;27567;43.084;25.616;2023-07-24T00:46:35;19.85;;;8.43;;
41885;SDS011;27567;43.084;25.616;2023-07-24T00:49:19;11.38;;;8.77;;
41885;SDS011;27567;43.084;25.616;2023-07-24T00:52:05;10.80;;;8.13;;
41885;SDS011;27567;43.084;25.616;2023-07-24T00:54:49;13.68;;;9.10;;
41885;SDS011;27567;43.084;25.616;2023-07-24T00:57:33;14.65;;;8.95;;
41885;SDS011;27567;43.084;25.616;2023-07-24T01:00:18;9.95;;;8.02;;
41885;SDS011;27567;43.084;25.616;2023-07-24T01:03:02;11.57;;;8.57;;
41885;SDS011;27567;43.084;25.616;2023-07-24T01:05:46;11.38;;;9.45;;
41885;SDS011;27567;43.084;25.616;2023-07-24T01:08:30;15.20;;;11.43;;
41885;SDS011;27567;43.084;25.616;2023-07-24T01:11:15;17.80;;;12.70;;
41885;SDS011;27567;43.084;25.616;2023-07-24T01:17:12;21.25;;;13.80;;
41885;SDS011;27567;43.084;25.616;2023-07-24T01:20:00;23.65;;;14.60;;
41885;SDS011;27567;43.084;25.616;2023-07-24T01:22:57;24.35;;;17.48;;
41885;SDS011;27567;43.084;25.616;2023-07-24T01:26:04;17.15;;;9.43;;
41885;SDS011;27567;43.084;25.616;2023-07-24T01:28:49;12.98;;;8.98;;
41885;SDS011;27567;43.084;25.616;2023-07-24T01:31:33;11.60;;;8.18;;
41885;SDS011;27567;43.084;25.616;2023-07-24T01:34:17;13.25;;;8.30;;
41885;SDS011;27567;43.084;25.616;2023-07-24T01:37:01;8.82;;;7.55;;
41885;SDS011;27567;43.084;25.616;2023-07-24T01:39:46;11.23;;;8.07;;
41885;SDS011;27567;43.084;25.616;2023-07-24T01:42:31;13.63;;;8.25;;
41885;SDS011;27567;43.084;25.616;2023-07-24T01:45:15;9.93;;;7.80;;
41885;SDS011;27567;43.084;25.616;2023-07-24T01:47:59;9.18;;;7.43;;
41885;SDS011;27567;43.084;25.616;2023-07-24T01:50:43;10.02;;;7.85;;
41885;SDS011;27567;43.084;25.616;2023-07-24T01:53:27;11.95;;;7.78;;
41885;SDS011;27567;43.084;25.616;2023-07-24T01:56:11;14.35;;;8.07;;
41885;SDS011;27567;43.084;25.616;2023-07-24T01:58:55;12.07;;;7.93;;
41885;SDS011;27567;43.084;25.616;2023-07-24T02:01:39;10.90;;;7.53;;
41885;SDS011;27567;43.084;25.616;2023-07-24T02:04:23;11.68;;;8.48;;
41885;SDS011;27567;43.084;25.616;2023-07-24T02:07:07;14.25;;;7.43;;
41885;SDS011;27567;43.084;25.616;2023-07-24T02:09:51;9.07;;;7.03;;
41885;SDS011;27567;43.084;25.616;2023-07-24T02:12:35;9.50;;;7.88;;
41885;SDS011;27567;43.084;25.616;2023-07-24T02:15:18;11.77;;;7.72;;
41885;SDS011;27567;43.084;25.616;2023-07-24T02:18:02;9.88;;;7.93;;
41885;SDS011;27567;43.084;25.616;2023-07-24T02:20:50;12.77;;;8.48;;
41885;SDS011;27567;43.084;25.616;2023-07-24T02:23:35;13.90;;;8.20;;
41885;SDS011;27567;43.084;25.616;2023-07-24T02:26:19;13.13;;;8.02;;
41885;SDS011;27567;43.084;25.616;2023-07-24T02:29:03;14.43;;;7.93;;
41885;SDS011;27567;43.084;25.616;2023-07-24T02:31:47;15.10;;;8.23;;
41885;SDS011;27567;43.084;25.616;2023-07-24T02:34:31;9.65;;;7.63;;
41885;SDS011;27567;43.084;25.616;2023-07-24T02:37:14;12.25;;;8.73;;
41885;SDS011;27567;43.084;25.616;2023-07-24T02:39:58;14.77;;;9.10;;
41885;SDS011;27567;43.084;25.616;2023-07-24T02:42:42;10.98;;;8.23;;
41885;SDS011;27567;43.084;25.616;2023-07-24T02:45:26;13.10;;;8.23;;
41885;SDS011;27567;43.084;25.616;2023-07-24T02:48:10;11.30;;;7.25;;
41885;SDS011;27567;43.084;25.616;2023-07-24T02:50:54;10.93;;;8.30;;
41885;SDS011;27567;43.084;25.616;2023-07-24T02:53:39;13.10;;;8.73;;
41885;SDS011;27567;43.084;25.616;2023-07-24T02:56:23;11.30;;;7.95;;
41885;SDS011;27567;43.084;25.616;2023-07-24T02:59:07;11.80;;;8.15;;
41885;SDS011;27567;43.084;25.616;2023-07-24T03:01:51;11.48;;;7.60;;
41885;SDS011;27567;43.084;25.616;2023-07-24T03:04:35;11.15;;;8.50;;
41885;SDS011;27567;43.084;25.616;2023-07-24T03:07:19;15.30;;;8.35;;
41885;SDS011;27567;43.084;25.616;2023-07-24T03:10:03;10.15;;;7.68;;
41885;SDS011;27567;43.084;25.616;2023-07-24T03:12:48;11.73;;;8.07;;
41885;SDS011;27567;43.084;25.616;2023-07-24T03:15:32;11.65;;;8.05;;
41885;SDS011;27567;43.084;25.616;2023-07-24T03:18:16;15.65;;;8.82;;
41885;SDS011;27567;43.084;25.616;2023-07-24T03:21:00;12.30;;;8.60;;
41885;SDS011;27567;43.084;25.616;2023-07-24T03:23:44;11.02;;;8.38;;
41885;SDS011;27567;43.084;25.616;2023-07-24T03:26:28;12.95;;;8.68;;
41885;SDS011;27567;43.084;25.616;2023-07-24T03:29:12;13.40;;;8.77;;
41885;SDS011;27567;43.084;25.616;2023-07-24T03:31:56;12.68;;;8.63;;
41885;SDS011;27567;43.084;25.616;2023-07-24T03:34:40;13.57;;;8.82;;
41885;SDS011;27567;43.084;25.616;2023-07-24T03:37:24;16.60;;;10.07;;
41885;SDS011;27567;43.084;25.616;2023-07-24T03:40:08;15.63;;;9.35;;
41885;SDS011;27567;43.084;25.616;2023-07-24T03:42:53;18.88;;;9.65;;
41885;SDS011;27567;43.084;25.616;2023-07-24T03:45:37;12.65;;;9.80;;
41885;SDS011;27567;43.084;25.616;2023-07-24T03:48:21;15.73;;;9.27;;
41885;SDS011;27567;43.084;25.616;2023-07-24T03:51:05;11.30;;;8.65;;
41885;SDS011;27567;43.084;25.616;2023-07-24T03:53:51;9.88;;;8.00;;
41885;SDS011;27567;43.084;25.616;2023-07-24T03:56:35;13.18;;;8.02;;
41885;SDS011;27567;43.084;25.616;2023-07-24T03:59:19;12.63;;;7.40;;
41885;SDS011;27567;43.084;25.616;2023-07-24T04:02:03;15.40;;;7.75;;
41885;SDS011;27567;43.084;25.616;2023-07-24T04:04:47;12.10;;;7.88;;
41885;SDS011;27567;43.084;25.616;2023-07-24T04:07:32;10.95;;;7.28;;
41885;SDS011;27567;43.084;25.616;2023-07-24T04:10:16;10.95;;;8.18;;
41885;SDS011;27567;43.084;25.616;2023-07-24T04:12:59;15.07;;;8.85;;
41885;SDS011;27567;43.084;25.616;2023-07-24T04:15:43;11.52;;;7.10;;
41885;SDS011;27567;43.084;25.616;2023-07-24T04:18:30;13.13;;;6.90;;
41885;SDS011;27567;43.084;25.616;2023-07-24T04:21:14;11.80;;;7.85;;
41885;SDS011;27567;43.084;25.616;2023-07-24T04:23:58;20.63;;;8.48;;
41885;SDS011;27567;43.084;25.616;2023-07-24T04:26:42;12.38;;;6.90;;
41885;SDS011;27567;43.084;25.616;2023-07-24T04:29:26;11.13;;;6.88;;
41885;SDS011;27567;43.084;25.616;2023-07-24T04:32:11;13.60;;;6.75;;
41885;SDS011;27567;43.084;25.616;2023-07-24T04:34:55;10.80;;;6.60;;
41885;SDS011;27567;43.084;25.616;2023-07-24T04:37:39;9.65;;;6.47;;
41885;SDS011;27567;43.084;25.616;2023-07-24T04:40:23;12.90;;;7.70;;
41885;SDS011;27567;43.084;25.616;2023-07-24T04:43:08;8.75;;;6.30;;
41885;SDS011;27567;43.084;25.616;2023-07-24T04:45:52;12.25;;;6.68;;
41885;SDS011;27567;43.084;25.616;2023-07-24T04:48:36;10.07;;;6.43;;
41885;SDS011;27567;43.084;25.616;2023-07-24T04:51:20;12.25;;;6.55;;
41885;SDS011;27567;43.084;25.616;2023-07-24T04:54:04;12.20;;;7.05;;
41885;SDS011;27567;43.084;25.616;2023-07-24T04:56:48;10.40;;;7.50;;
41885;SDS011;27567;43.084;25.616;2023-07-24T04:59:32;12.50;;;8.15;;
41885;SDS011;27567;43.084;25.616;2023-07-24T05:02:16;12.10;;;7.40;;
41885;SDS011;27567;43.084;25.616;2023-07-24T05:05:00;13.85;;;7.88;;
41885;SDS011;27567;43.084;25.616;2023-07-24T05:07:44;14.77;;;9.07;;
41885;SDS011;27567;43.084;25.616;2023-07-24T05:10:28;24.42;;;8.55;;
41885;SDS011;27567;43.084;25.616;2023-07-24T05:13:11;20.15;;;8.75;;
41885;SDS011;27567;43.084;25.616;2023-07-24T05:15:55;12.85;;;8.77;;
41885;SDS011;27567;43.084;25.616;2023-07-24T05:18:39;14.05;;;8.82;;
41885;SDS011;27567;43.084;25.616;2023-07-24T05:21:23;18.77;;;9.93;;
41885;SDS011;27567;43.084;25.616;2023-07-24T05:24:07;15.88;;;10.43;;
41885;SDS011;27567;43.084;25.616;2023-07-24T05:26:51;19.05;;;14.43;;
41885;SDS011;27567;43.084;25.616;2023-07-24T05:29:35;17.77;;;15.35;;
41885;SDS011;27567;43.084;25.616;2023-07-24T05:32:19;25.70;;;14.32;;
41885;SDS011;27567;43.084;25.616;2023-07-24T05:35:03;21.30;;;14.02;;
41885;SDS011;27567;43.084;25.616;2023-07-24T05:37:47;17.15;;;11.18;;
41885;SDS011;27567;43.084;25.616;2023-07-24T05:40:31;13.05;;;9.20;;
41885;SDS011;27567;43.084;25.616;2023-07-24T05:43:15;18.02;;;7.75;;
41885;SDS011;27567;43.084;25.616;2023-07-24T05:45:59;19.33;;;7.18;;
41885;SDS011;27567;43.084;25.616;2023-07-24T05:48:43;12.38;;;6.72;;
41885;SDS011;27567;43.084;25.616;2023-07-24T05:51:27;11.30;;;6.78;;
41885;SDS011;27567;43.084;25.616;2023-07-24T05:54:11;10.40;;;6.78;;
41885;SDS011;27567;43.084;25.616;2023-07-24T05:56:55;15.02;;;8.02;;
41885;SDS011;27567;43.084;25.616;2023-07-24T05:59:39;14.63;;;7.50;;
41885;SDS011;27567;43.084;25.616;2023-07-24T06:02:23;12.25;;;8.18;;
41885;SDS011;27567;43.084;25.616;2023-07-24T06:05:07;12.13;;;7.43;;
41885;SDS011;27567;43.084;25.616;2023-07-24T06:07:51;13.48;;;8.18;;
41885;SDS011;27567;43.084;25.616;2023-07-24T06:10:36;12.68;;;8.30;;
41885;SDS011;27567;43.084;25.616;2023-07-24T06:13:20;14.65;;;9.30;;
41885;SDS011;27567;43.084;25.616;2023-07-24T06:16:05;15.75;;;10.05;;
41885;SDS011;27567;43.084;25.616;2023-07-24T06:18:50;18.80;;;9.55;;
41885;SDS011;27567;43.084;25.616;2023-07-24T06:21:34;14.77;;;10.35;;
41885;SDS011;27567;43.084;25.616;2023-07-24T06:24:18;13.13;;;8.30;;
41885;SDS011;27567;43.084;25.616;2023-07-24T06:27:02;13.10;;;8.40;;
41885;SDS011;27567;43.084;25.616;2023-07-24T06:29:49;14.38;;;8.52;;
41885;SDS011;27567;43.084;25.616;2023-07-24T06:32:33;13.00;;;9.60;;
41885;SDS011;27567;43.084;25.616;2023-07-24T06:35:17;13.43;;;8.63;;
41885;SDS011;27567;43.084;25.616;2023-07-24T06:38:01;13.43;;;8.50;;
41885;SDS011;27567;43.084;25.616;2023-07-24T06:40:45;29.05;;;14.18;;
41885;SDS011;27567;43.084;25.616;2023-07-24T06:43:29;13.27;;;9.13;;
41885;SDS011;27567;43.084;25.616;2023-07-24T06:46:13;16.48;;;8.57;;
41885;SDS011;27567;43.084;25.616;2023-07-24T06:48:57;12.45;;;8.45;;
41885;SDS011;27567;43.084;25.616;2023-07-24T06:51:41;35.10;;;19.08;;
41885;SDS011;27567;43.084;25.616;2023-07-24T06:54:26;10.75;;;7.85;;
41885;SDS011;27567;43.084;25.616;2023-07-24T06:57:10;12.15;;;7.45;;
41885;SDS011;27567;43.084;25.616;2023-07-24T06:59:54;16.10;;;9.00;;
41885;SDS011;27567;43.084;25.616;2023-07-24T07:02:38;8.63;;;6.72;;
41885;SDS011;27567;43.084;25.616;2023-07-24T07:05:22;12.32;;;8.30;;
41885;SDS011;27567;43.084;25.616;2023-07-24T07:08:06;12.95;;;7.03;;
41885;SDS011;27567;43.084;25.616;2023-07-24T07:10:54;11.35;;;7.05;;
41885;SDS011;27567;43.084;25.616;2023-07-24T07:16:24;10.10;;;6.65;;
41885;SDS011;27567;43.084;25.616;2023-07-24T07:19:08;8.15;;;6.97;;
41885;SDS011;27567;43.084;25.616;2023-07-24T07:21:55;11.85;;;6.78;;
41885;SDS011;27567;43.084;25.616;2023-07-24T07:24:39;10.65;;;6.47;;
41885;SDS011;27567;43.084;25.616;2023-07-24T07:27:23;20.05;;;10.23;;
41885;SDS011;27567;43.084;25.616;2023-07-24T07:30:07;10.02;;;6.05;;
41885;SDS011;27567;43.084;25.616;2023-07-24T07:32:52;15.88;;;9.00;;
41885;SDS011;27567;43.084;25.616;2023-07-24T07:35:36;12.65;;;6.20;;
41885;SDS011;27567;43.084;25.616;2023-07-24T07:38:21;7.90;;;5.60;;
41885;SDS011;27567;43.084;25.616;2023-07-24T07:41:06;9.32;;;5.47;;
41885;SDS011;27567;43.084;25.616;2023-07-24T07:43:50;11.48;;;6.72;;
41885;SDS011;27567;43.084;25.616;2023-07-24T07:46:34;8.13;;;5.50;;
41885;SDS011;27567;43.084;25.616;2023-07-24T07:49:18;26.05;;;16.80;;
41885;SDS011;27567;43.084;25.616;2023-07-24T07:52:02;13.77;;;5.57;;
41885;SDS011;27567;43.084;25.616;2023-07-24T07:54:47;8.27;;;6.13;;
41885;SDS011;27567;43.084;25.616;2023-07-24T07:57:35;11.60;;;6.03;;
41885;SDS011;27567;43.084;25.616;2023-07-24T08:00:20;12.60;;;5.35;;
41885;SDS011;27567;43.084;25.616;2023-07-24T08:03:04;8.10;;;5.40;;
41885;SDS011;27567;43.084;25.616;2023-07-24T08:05:49;8.20;;;4.45;;
41885;SDS011;27567;43.084;25.616;2023-07-24T08:08:33;8.50;;;6.15;;
41885;SDS011;27567;43.084;25.616;2023-07-24T08:11:17;8.30;;;5.85;;
41885;SDS011;27567;43.084;25.616;2023-07-24T08:14:01;5.80;;;4.60;;
41885;SDS011;27567;43.084;25.616;2023-07-24T08:16:44;5.38;;;4.65;;
41885;SDS011;27567;43.084;25.616;2023-07-24T08:19:32;11.77;;;5.68;;
41885;SDS011;27567;43.084;25.616;2023-07-24T08:22:16;4.63;;;3.80;;
41885;SDS011;27567;43.084;25.616;2023-07-24T08:25:00;7.55;;;4.93;;
41885;SDS011;27567;43.084;25.616;2023-07-24T08:27:44;8.07;;;4.05;;
41885;SDS011;27567;43.084;25.616;2023-07-24T08:30:28;6.90;;;4.90;;
41885;SDS011;27567;43.084;25.616;2023-07-24T08:33:12;14.95;;;4.50;;
41885;SDS011;27567;43.084;25.616;2023-07-24T08:35:58;4.80;;;4.30;;
41885;SDS011;27567;43.084;25.616;2023-07-24T08:38:46;9.40;;;4.50;;
41885;SDS011;27567;43.084;25.616;2023-07-24T08:41:31;8.75;;;5.45;;
41885;SDS011;27567;43.084;25.616;2023-07-24T08:44:18;5.22;;;3.50;;
41885;SDS011;27567;43.084;25.616;2023-07-24T08:47:04;9.88;;;4.03;;
41885;SDS011;27567;43.084;25.616;2023-07-24T08:49:50;5.15;;;4.10;;
41885;SDS011;27567;43.084;25.616;2023-07-24T08:52:35;4.13;;;3.45;;
41885;SDS011;27567;43.084;25.616;2023-07-24T08:55:19;4.70;;;3.60;;
41885;SDS011;27567;43.084;25.616;2023-07-24T08:58:03;6.63;;;4.00;;
41885;SDS011;27567;43.084;25.616;2023-07-24T09:00:51;7.18;;;4.40;;
41885;SDS011;27567;43.084;25.616;2023-07-24T09:03:35;5.10;;;3.97;;
41885;SDS011;27567;43.084;25.616;2023-07-24T09:06:19;10.48;;;4.10;;
41885;SDS011;27567;43.084;25.616;2023-07-24T09:09:11;6.47;;;4.00;;
41885;SDS011;27567;43.084;25.616;2023-07-24T09:11:56;4.93;;;3.58;;
41885;SDS011;27567;43.084;25.616;2023-07-24T09:14:41;3.85;;;3.50;;
41885;SDS011;27567;43.084;25.616;2023-07-24T09:17:25;4.40;;;3.75;;
41885;SDS011;27567;43.084;25.616;2023-07-24T09:20:09;6.25;;;4.20;;
41885;SDS011;27567;43.084;25.616;2023-07-24T09:22:54;4.80;;;4.00;;
41885;SDS011;27567;43.084;25.616;2023-07-24T09:25:38;10.15;;;5.95;;
41885;SDS011;27567;43.084;25.616;2023-07-24T09:28:24;12.88;;;9.05;;
41885;SDS011;27567;43.084;25.616;2023-07-24T09:31:08;6.10;;;4.97;;
41885;SDS011;27567;43.084;25.616;2023-07-24T09:33:51;4.68;;;3.83;;
41885;SDS011;27567;43.084;25.616;2023-07-24T09:36:38;4.65;;;4.00;;
41885;SDS011;27567;43.084;25.616;2023-07-24T09:39:25;8.60;;;5.13;;
41885;SDS011;27567;43.084;25.616;2023-07-24T09:42:10;5.35;;;4.47;;
41885;SDS011;27567;43.084;25.616;2023-07-24T09:44:54;4.90;;;3.85;;
41885;SDS011;27567;43.084;25.616;2023-07-24T09:47:39;4.13;;;3.72;;
41885;SDS011;27567;43.084;25.616;2023-07-24T09:50:23;7.43;;;4.38;;
41885;SDS011;27567;43.084;25.616;2023-07-24T09:53:12;7.15;;;4.03;;
41885;SDS011;27567;43.084;25.616;2023-07-24T09:56:02;4.60;;;4.03;;
41885;SDS011;27567;43.084;25.616;2023-07-24T09:58:51;4.80;;;4.20;;
41885;SDS011;27567;43.084;25.616;2023-07-24T10:01:39;7.57;;;4.60;;
41885;SDS011;27567;43.084;25.616;2023-07-24T10:04:24;5.40;;;4.05;;
41885;SDS011;27567;43.084;25.616;2023-07-24T10:07:08;4.75;;;4.20;;
41885;SDS011;27567;43.084;25.616;2023-07-24T10:09:52;5.18;;;4.28;;
41885;SDS011;27567;43.084;25.616;2023-07-24T10:12:38;4.78;;;4.13;;
41885;SDS011;27567;43.084;25.616;2023-07-24T10:15:23;4.70;;;3.80;;
41885;SDS011;27567;43.084;25.616;2023-07-24T10:18:08;4.93;;;4.40;;
41885;SDS011;27567;43.084;25.616;2023-07-24T10:21:00;5.78;;;4.60;;
41885;SDS011;27567;43.084;25.616;2023-07-24T10:23:46;7.30;;;4.38;;
41885;SDS011;27567;43.084;25.616;2023-07-24T10:26:30;6.25;;;4.20;;
41885;SDS011;27567;43.084;25.616;2023-07-24T10:29:14;4.85;;;4.18;;
41885;SDS011;27567;43.084;25.616;2023-07-24T10:31:59;4.85;;;4.22;;
41885;SDS011;27567;43.084;25.616;2023-07-24T10:34:43;4.93;;;4.05;;
41885;SDS011;27567;43.084;25.616;2023-07-24T10:37:36;5.65;;;4.15;;
41885;SDS011;27567;43.084;25.616;2023-07-24T10:40:21;4.80;;;4.15;;
41885;SDS011;27567;43.084;25.616;2023-07-24T10:45:52;4.90;;;3.90;;
41885;SDS011;27567;43.084;25.616;2023-07-24T10:48:37;7.55;;;4.43;;
41885;SDS011;27567;43.084;25.616;2023-07-24T10:51:25;5.38;;;4.38;;
41885;SDS011;27567;43.084;25.616;2023-07-24T10:54:09;7.43;;;4.20;;
41885;SDS011;27567;43.084;25.616;2023-07-24T10:56:57;4.85;;;4.22;;
41885;SDS011;27567;43.084;25.616;2023-07-24T10:59:43;5.90;;;5.07;;
41885;SDS011;27567;43.084;25.616;2023-07-24T11:02:27;4.72;;;3.80;;
41885;SDS011;27567;43.084;25.616;2023-07-24T11:05:12;5.30;;;3.53;;
41885;SDS011;27567;43.084;25.616;2023-07-24T11:07:57;4.10;;;3.38;;
41885;SDS011;27567;43.084;25.616;2023-07-24T11:10:49;5.55;;;3.85;;
41885;SDS011;27567;43.084;25.616;2023-07-24T11:13:33;5.18;;;4.32;;
41885;SDS011;27567;43.084;25.616;2023-07-24T11:16:17;4.97;;;4.38;;
41885;SDS011;27567;43.084;25.616;2023-07-24T11:19:01;10.75;;;5.57;;
41885;SDS011;27567;43.084;25.616;2023-07-24T11:21:46;6.07;;;3.70;;
41885;SDS011;27567;43.084;25.616;2023-07-24T11:24:30;4.88;;;3.85;;
41885;SDS011;27567;43.084;25.616;2023-07-24T11:27:15;6.50;;;4.32;;
41885;SDS011;27567;43.084;25.616;2023-07-24T11:29:59;6.97;;;4.47;;
41885;SDS011;27567;43.084;25.616;2023-07-24T11:32:44;8.52;;;3.90;;
41885;SDS011;27567;43.084;25.616;2023-07-24T11:35:29;4.85;;;4.28;;
41885;SDS011;27567;43.084;25.616;2023-07-24T11:38:13;4.50;;;4.10;;
41885;SDS011;27567;43.084;25.616;2023-07-24T11:40:57;5.13;;;4.63;;
41885;SDS011;27567;43.084;25.616;2023-07-24T11:43:46;5.13;;;4.55;;
41885;SDS011;27567;43.084;25.616;2023-07-24T11:46:31;5.10;;;4.32;;
41885;SDS011;27567;43.084;25.616;2023-07-24T11:49:15;6.03;;;4.45;;
41885;SDS011;27567;43.084;25.616;2023-07-24T11:52:03;6.10;;;5.15;;
41885;SDS011;27567;43.084;25.616;2023-07-24T11:54:58;5.22;;;4.55;;
41885;SDS011;27567;43.084;25.616;2023-07-24T11:57:57;6.55;;;5.07;;
41885;SDS011;27567;43.084;25.616;2023-07-24T12:00:42;5.53;;;4.25;;
41885;SDS011;27567;43.084;25.616;2023-07-24T12:03:26;9.30;;;4.55;;
41885;SDS011;27567;43.084;25.616;2023-07-24T12:06:15;6.22;;;5.13;;
41885;SDS011;27567;43.084;25.616;2023-07-24T12:11:46;6.63;;;5.53;;
41885;SDS011;27567;43.084;25.616;2023-07-24T12:14:31;6.38;;;4.35;;
41885;SDS011;27567;43.084;25.616;2023-07-24T12:17:18;6.80;;;4.53;;
41885;SDS011;27567;43.084;25.616;2023-07-24T12:20:04;9.25;;;5.78;;
41885;SDS011;27567;43.084;25.616;2023-07-24T12:22:49;5.68;;;5.10;;
41885;SDS011;27567;43.084;25.616;2023-07-24T12:25:33;8.98;;;6.03;;
41885;SDS011;27567;43.084;25.616;2023-07-24T12:28:17;10.05;;;5.68;;
41885;SDS011;27567;43.084;25.616;2023-07-24T12:31:01;6.32;;;5.72;;
41885;SDS011;27567;43.084;25.616;2023-07-24T12:33:46;5.65;;;4.60;;
41885;SDS011;27567;43.084;25.616;2023-07-24T12:36:30;9.25;;;5.93;;
41885;SDS011;27567;43.084;25.616;2023-07-24T12:39:14;6.93;;;5.30;;
41885;SDS011;27567;43.084;25.616;2023-07-24T12:41:58;6.28;;;5.40;;
41885;SDS011;27567;43.084;25.616;2023-07-24T12:44:42;7.07;;;5.43;;
41885;SDS011;27567;43.084;25.616;2023-07-24T12:47:27;7.40;;;5.80;;
41885;SDS011;27567;43.084;25.616;2023-07-24T12:50:11;6.55;;;5.85;;
41885;SDS011;27567;43.084;25.616;2023-07-24T12:52:55;7.07;;;6.38;;
41885;SDS011;27567;43.084;25.616;2023-07-24T12:55:39;6.93;;;6.22;;
41885;SDS011;27567;43.084;25.616;2023-07-24T12:58:23;9.02;;;6.15;;
41885;SDS011;27567;43.084;25.616;2023-07-24T13:01:07;9.02;;;5.80;;
41885;SDS011;27567;43.084;25.616;2023-07-24T13:03:51;7.25;;;5.80;;
41885;SDS011;27567;43.084;25.616;2023-07-24T13:06:35;8.05;;;6.38;;
41885;SDS011;27567;43.084;25.616;2023-07-24T13:09:19;8.52;;;6.47;;
41885;SDS011;27567;43.084;25.616;2023-07-24T13:12:04;8.70;;;6.78;;
41885;SDS011;27567;43.084;25.616;2023-07-24T13:14:48;7.70;;;5.55;;
41885;SDS011;27567;43.084;25.616;2023-07-24T13:17:32;5.97;;;5.38;;
41885;SDS011;27567;43.084;25.616;2023-07-24T13:20:16;8.10;;;5.72;;
41885;SDS011;27567;43.084;25.616;2023-07-24T13:23:00;6.88;;;5.93;;
41885;SDS011;27567;43.084;25.616;2023-07-24T13:25:44;9.35;;;5.68;;
41885;SDS011;27567;43.084;25.616;2023-07-24T13:28:28;6.35;;;5.57;;
41885;SDS011;27567;43.084;25.616;2023-07-24T13:31:19;6.30;;;5.70;;
41885;SDS011;27567;43.084;25.616;2023-07-24T13:34:04;8.07;;;6.25;;
41885;SDS011;27567;43.084;25.616;2023-07-24T13:36:48;7.88;;;5.85;;
41885;SDS011;27567;43.084;25.616;2023-07-24T13:39:32;6.40;;;5.75;;
41885;SDS011;27567;43.084;25.616;2023-07-24T13:42:18;6.93;;;5.63;;
41885;SDS011;27567;43.084;25.616;2023-07-24T13:45:02;9.13;;;5.57;;
41885;SDS011;27567;43.084;25.616;2023-07-24T13:47:46;10.05;;;6.93;;
41885;SDS011;27567;43.084;25.616;2023-07-24T13:50:30;8.18;;;7.38;;
41885;SDS011;27567;43.084;25.616;2023-07-24T13:53:14;6.55;;;5.88;;
41885;SDS011;27567;43.084;25.616;2023-07-24T13:55:58;7.65;;;6.03;;
41885;SDS011;27567;43.084;25.616;2023-07-24T13:58:42;6.35;;;5.75;;
41885;SDS011;27567;43.084;25.616;2023-07-24T14:01:26;6.25;;;5.65;;
41885;SDS011;27567;43.084;25.616;2023-07-24T14:04:10;8.95;;;6.10;;
41885;SDS011;27567;43.084;25.616;2023-07-24T14:06:55;7.32;;;6.10;;
41885;SDS011;27567;43.084;25.616;2023-07-24T14:09:39;7.88;;;6.00;;
41885;SDS011;27567;43.084;25.616;2023-07-24T14:12:23;8.68;;;6.25;;
41885;SDS011;27567;43.084;25.616;2023-07-24T14:15:07;9.70;;;6.80;;
41885;SDS011;27567;43.084;25.616;2023-07-24T14:17:52;12.48;;;8.57;;
41885;SDS011;27567;43.084;25.616;2023-07-24T14:20:36;6.97;;;6.13;;
41885;SDS011;27567;43.084;25.616;2023-07-24T14:23:21;6.47;;;5.88;;
41885;SDS011;27567;43.084;25.616;2023-07-24T14:26:05;7.13;;;6.35;;
41885;SDS011;27567;43.084;25.616;2023-07-24T14:28:49;7.63;;;6.43;;
41885;SDS011;27567;43.084;25.616;2023-07-24T14:31:33;6.88;;;5.88;;
41885;SDS011;27567;43.084;25.616;2023-07-24T14:34:17;7.53;;;5.57;;
41885;SDS011;27567;43.084;25.616;2023-07-24T14:37:01;8.52;;;6.22;;
41885;SDS011;27567;43.084;25.616;2023-07-24T14:39:44;6.07;;;5.47;;
41885;SDS011;27567;43.084;25.616;2023-07-24T14:42:28;6.90;;;5.60;;
41885;SDS011;27567;43.084;25.616;2023-07-24T14:45:12;7.15;;;6.00;;
41885;SDS011;27567;43.084;25.616;2023-07-24T14:47:56;6.10;;;5.50;;
41885;SDS011;27567;43.084;25.616;2023-07-24T14:50:40;6.47;;;5.60;;
41885;SDS011;27567;43.084;25.616;2023-07-24T14:53:24;6.07;;;5.47;;
41885;SDS011;27567;43.084;25.616;2023-07-24T14:56:08;7.53;;;5.95;;
41885;SDS011;27567;43.084;25.616;2023-07-24T14:58:52;6.68;;;5.63;;
41885;SDS011;27567;43.084;25.616;2023-07-24T15:01:36;6.75;;;5.40;;
41885;SDS011;27567;43.084;25.616;2023-07-24T15:04:20;6.72;;;6.03;;
41885;SDS011;27567;43.084;25.616;2023-07-24T15:07:04;7.50;;;6.70;;
41885;SDS011;27567;43.084;25.616;2023-07-24T15:09:48;9.35;;;6.18;;
41885;SDS011;27567;43.084;25.616;2023-07-24T15:12:32;8.18;;;7.05;;
41885;SDS011;27567;43.084;25.616;2023-07-24T15:15:16;9.52;;;8.48;;
41885;SDS011;27567;43.084;25.616;2023-07-24T15:18:00;8.15;;;6.25;;
41885;SDS011;27567;43.084;25.616;2023-07-24T15:20:44;7.82;;;6.55;;
41885;SDS011;27567;43.084;25.616;2023-07-24T15:23:28;8.82;;;6.88;;
41885;SDS011;27567;43.084;25.616;2023-07-24T15:26:12;7.07;;;6.38;;
41885;SDS011;27567;43.084;25.616;2023-07-24T15:28:57;7.88;;;6.80;;
41885;SDS011;27567;43.084;25.616;2023-07-24T15:31:41;11.07;;;6.43;;
41885;SDS011;27567;43.084;25.616;2023-07-24T15:34:25;6.30;;;5.68;;
41885;SDS011;27567;43.084;25.616;2023-07-24T15:37:09;7.40;;;6.18;;
41885;SDS011;27567;43.084;25.616;2023-07-24T15:39:57;9.27;;;6.30;;
41885;SDS011;27567;43.084;25.616;2023-07-24T15:42:42;8.70;;;7.20;;
41885;SDS011;27567;43.084;25.616;2023-07-24T15:45:26;9.63;;;6.72;;
41885;SDS011;27567;43.084;25.616;2023-07-24T15:48:10;9.27;;;6.53;;
41885;SDS011;27567;43.084;25.616;2023-07-24T15:50:54;9.07;;;5.80;;
41885;SDS011;27567;43.084;25.616;2023-07-24T15:53:39;10.93;;;6.65;;
41885;SDS011;27567;43.084;25.616;2023-07-24T15:56:22;7.80;;;6.47;;
41885;SDS011;27567;43.084;25.616;2023-07-24T15:59:07;9.77;;;6.75;;
41885;SDS011;27567;43.084;25.616;2023-07-24T16:01:53;10.98;;;7.93;;
41885;SDS011;27567;43.084;25.616;2023-07-24T16:04:38;8.07;;;6.93;;
41885;SDS011;27567;43.084;25.616;2023-07-24T16:07:22;8.68;;;6.82;;
41885;SDS011;27567;43.084;25.616;2023-07-24T16:10:06;10.07;;;7.32;;
41885;SDS011;27567;43.084;25.616;2023-07-24T16:12:50;9.63;;;7.28;;
41885;SDS011;27567;43.084;25.616;2023-07-24T16:15:34;10.68;;;6.80;;
41885;SDS011;27567;43.084;25.616;2023-07-24T16:18:22;9.57;;;6.57;;
41885;SDS011;27567;43.084;25.616;2023-07-24T16:21:09;10.45;;;6.53;;